• Join FlightAware (Why Join?)
  • Login
  • US Flag 
06:22AM EST


 

Airport Tracker/Info


-or-


 

Live Flight TrackerFlight Track Log ✈ EJA831 ✈ 27-Apr-2013 ✈ KPIT - KFWA

Flight Track Log - Related Links

Times and Time Zones

All times are in EDT time to prevent confusion due to time zone crossing. See the EJA831 flight status page for this flight to view local times or setup timezone preferences in your user account.

Time Position Orientation Groundspeed Altitude Reporting Facility
EDT Latitude Longitude Course Direction KTS MPH feet Rate Location/Type
10:19AM 40.5356 -80.1897 285° West 284 327 8,600  Level Cleveland Center
10:20AM 40.5547 -80.2906 284° West 308 354 12,200 2,940 Climbing Cleveland Center
10:21AM 40.5736 -80.3944 283° West 333 383 14,500 2,700 Climbing Cleveland Center
10:22AM 40.5861 -80.5203 277° West 339 390 17,600 2,760 Climbing Cleveland Center
10:23AM 40.5967 -80.6625 276° West 352 405 20,100 2,040 Climbing Cleveland Center
10:24AM 40.6356 -80.9613 285° West  Level FlightAware Approximate
10:24AM 40.6131 -80.7772 281° West 357 411 21,700  Level Cleveland Center
10:25AM 40.6275 -80.9086 278° West 362 417 22,000 120 Climbing Cleveland Center
10:26AM 40.6417 -81.0428 278° West 367 422 22,000  Level Cleveland Center
10:27AM 40.6514 -81.1769 275° West 373 429 22,000  Level Cleveland Center
10:28AM 40.6631 -81.3139 276° West 368 423 22,000  Level Cleveland Center
10:29AM 40.6786 -81.4592 278° West 368 423 22,000  Level Cleveland Center
10:30AM 40.6922 -81.5936 278° West 368 423 22,000  Level Cleveland Center
10:31AM 40.7033 -81.7278 276° West 368 423 22,000  Level Cleveland Center
10:32AM 40.7167 -81.8625 277° West 368 423 22,000  Level Cleveland Center
10:33AM 40.7297 -81.9969 277° West 368 423 22,000  Level Cleveland Center
10:34AM 40.7425 -82.1314 277° West 368 423 22,000  Level Cleveland Center
10:35AM 40.7531 -82.2661 276° West 368 423 22,000  Level Cleveland Center
10:36AM 40.7636 -82.3897 276° West 368 423 22,000  Level Cleveland Center
10:37AM 40.7761 -82.5244 277° West 368 423 22,000  Level Cleveland Center
10:38AM 40.7861 -82.6592 276° West 368 423 22,000  Level Cleveland Center
10:39AM 40.8003 -82.7967 278° West 368 423 22,000  Level Cleveland Center
10:40AM 40.8100 -82.9286 276° West 373 429 22,000  Level Cleveland Center
10:41AM 40.8236 -83.0800 277° West 373 429 22,000 -180 Level Cleveland Center
10:42AM 40.8308 -83.2175 274° West 373 429 21,700 -1,020 Descending Cleveland Center
10:43AM 40.8403 -83.3553 275° West 378 435 20,000 -900 Descending Cleveland Center
10:44AM 40.8472 -83.4900 274° West 372 428 19,900 -900 Descending Cleveland Center
10:45AM 40.8561 -83.6250 275° West 372 428 18,300 -1,320 Descending Cleveland Center
10:46AM 40.8611 -83.7489 273° West 367 422 17,300 -1,260 Descending Cleveland Center
10:47AM 40.8722 -83.8756 277° West 357 411 15,800 -1,500 Descending Cleveland Center
10:48AM 40.8811 -83.9997 275° West 352 405 14,300 -1,500 Descending Cleveland Center
10:49AM 40.8917 -84.1294 276° West 352 405 12,800 -1,440 Descending Cleveland Center
10:50AM 40.9036 -84.2681 277° West 337 388 11,100 -840 Descending Chicago Center
10:52AM 40.9139 -84.3867 277° West 327 376 11,000 -60 Descending Chicago Center
10:53AM 40.9236 -84.5094 276° West 333 383 11,000 -780 Level Chicago Center
10:54AM 40.9531 -84.6106 291° West 304 350 9,500 -1,560 Descending Chicago Center
10:55AM 40.9803 -84.7125 290° West 297 342 7,900 -1,740 Descending Chicago Center
10:56AM 41.0117 -84.8344 289° West 294 338 6,000 -1,740 Descending Chicago Center
10:57AM 41.0353 -84.9372 287° West 292 336 4,400 -1,380 Descending Chicago Center
10:58AM 41.0578 -85.0333 287° West 285 328 3,200 -960 Descending Chicago Center
10:59AM 41.0550 -85.1167 267° West 250 288 2,500 -540 Descending Chicago Center
11:00AM 41.0442 -85.1867 258° West 221 254 2,200 -300 Descending Chicago Center